Time;durP1;ratioP1;P1;durP2;ratioP2;P2;SDS_P1;SDS_P2;PMS_P1;PMS_P2;Temp;Humidity;BMP_temperature;BMP_pressure;BME280_temperature;BME280_humidity;BME280_pressure;Samples;Min_cycle;Max_cycle;Signal;HPM_P1;HPM_P2
2023/10/15 00:00:15;;;;;;;9.68;3.70;;;;;;;6.56;100.00;101610.41;5010545;28;20030;-67
2023/10/15 00:02:44;;;;;;;9.45;3.25;;;;;;;6.57;100.00;101607.03;5011045;28;20505;-68
2023/10/15 00:05:12;;;;;;;6.63;3.08;;;;;;;6.63;100.00;101604.84;5010691;28;20028;-68
2023/10/15 00:07:38;;;;;;;9.88;3.42;;;;;;;6.66;100.00;101606.69;5010576;28;20033;-68
2023/10/15 00:10:13;;;;;;;7.20;3.63;;;;;;;6.67;100.00;101614.56;5010304;28;20108;-67
2023/10/15 00:12:39;;;;;;;6.78;2.97;;;;;;;6.68;100.00;101615.41;5010691;28;20037;-68
2023/10/15 00:15:18;;;;;;;7.15;2.88;;;;;;;6.75;100.00;101639.84;5004619;28;20439;-67
2023/10/15 00:17:57;;;;;;;4.13;3.15;;;;;;;6.82;100.00;101644.59;5022740;28;20156;-68
2023/10/15 00:20:31;;;;;;;6.50;3.50;;;;;;;6.88;100.00;101650.13;5010030;28;20501;-68
2023/10/15 00:23:04;;;;;;;6.78;2.95;;;;;;;6.93;100.00;101637.50;5009102;28;20095;-67
2023/10/15 00:25:34;;;;;;;8.50;3.03;;;;;;;6.96;100.00;101648.03;5009820;28;20079;-67
2023/10/15 00:27:59;;;;;;;6.43;4.03;;;;;;;7.03;100.00;101651.84;5010375;28;20033;-66
2023/10/15 00:30:31;;;;;;;7.78;3.45;;;;;;;7.08;100.00;101653.00;5010131;28;20087;-67
2023/10/15 00:32:57;;;;;;;6.85;3.10;;;;;;;7.10;100.00;101651.41;5009876;28;20076;-66
2023/10/15 00:35:25;;;;;;;8.95;3.85;;;;;;;7.10;100.00;101651.41;5010114;28;20518;-67
2023/10/15 00:37:56;;;;;;;10.98;3.70;;;;;;;7.09;100.00;101636.72;5010400;28;20580;-66
2023/10/15 00:40:24;;;;;;;8.05;3.42;;;;;;;7.13;100.00;101646.44;5009223;28;20080;-67
2023/10/15 00:42:50;;;;;;;9.52;3.10;;;;;;;7.14;100.00;101644.75;5010010;28;20056;-67
2023/10/15 00:45:20;;;;;;;7.13;3.42;;;;;;;7.17;100.00;101648.41;5010157;28;20537;-68
2023/10/15 00:48:00;;;;;;;5.38;2.70;;;;;;;7.20;100.00;101648.56;5009952;28;20585;-67
2023/10/15 00:50:31;;;;;;;4.70;3.10;;;;;;;7.19;100.00;101645.91;4997654;28;20018;-67
2023/10/15 00:52:59;;;;;;;7.13;3.30;;;;;;;7.20;100.00;101648.56;5009627;28;20017;-67
2023/10/15 00:55:26;;;;;;;9.18;2.92;;;;;;;7.18;100.00;101629.53;5009161;28;20053;-67
2023/10/15 00:57:56;;;;;;;6.00;2.83;;;;;;;7.17;100.00;101620.03;5010239;28;20048;-67
2023/10/15 01:03:07;;;;;;;7.22;3.20;;;;;;;7.15;100.00;101620.75;5009997;28;20505;-67
2023/10/15 01:05:47;;;;;;;8.43;3.33;;;;;;;7.15;100.00;101624.22;5008456;28;20022;-67
2023/10/15 01:08:16;;;;;;;5.22;3.08;;;;;;;7.16;100.00;101619.97;5009305;28;20025;-67
2023/10/15 01:10:42;;;;;;;8.50;3.22;;;;;;;7.13;100.00;101623.22;5008977;28;20509;-66
2023/10/15 01:13:17;;;;;;;5.20;2.50;;;;;;;7.03;100.00;101613.19;5008758;28;20568;-67
2023/10/15 01:15:45;;;;;;;7.55;2.70;;;;;;;7.04;100.00;101615.84;5011533;28;20428;-67
2023/10/15 01:18:10;;;;;;;6.35;2.58;;;;;;;7.04;100.00;101620.09;5019288;28;20083;-67
2023/10/15 01:20:42;;;;;;;5.38;2.13;;;;;;;7.03;100.00;101608.94;5008531;28;20476;-67
2023/10/15 01:23:09;;;;;;;3.08;1.65;;;;;;;6.93;100.00;101611.72;5009261;28;20303;-67
2023/10/15 01:25:38;;;;;;;4.68;1.88;;;;;;;6.87;100.00;101609.72;5008498;28;20057;-67
2023/10/15 01:28:06;;;;;;;5.55;2.20;;;;;;;6.83;100.00;101602.59;5009540;28;20049;-67
2023/10/15 01:30:36;;;;;;;6.43;2.15;;;;;;;6.80;100.00;101599.84;5009138;28;20054;-67
2023/10/15 01:33:06;;;;;;;4.47;2.47;;;;;;;6.77;100.00;101602.19;5008604;28;20026;-67
2023/10/15 01:35:32;;;;;;;3.65;2.10;;;;;;;6.75;100.00;101616.66;5008186;28;20429;-67
2023/10/15 01:38:09;;;;;;;7.88;2.60;;;;;;;6.73;100.00;101614.91;5007654;28;20022;-66
2023/10/15 01:40:40;;;;;;;7.53;2.75;;;;;;;6.70;100.00;101616.41;5001565;28;20057;-67
2023/10/15 01:43:12;;;;;;;4.25;2.28;;;;;;;6.72;100.00;101615.72;5008162;28;20033;-66
2023/10/15 01:45:38;;;;;;;6.18;2.88;;;;;;;6.73;100.00;101617.47;5008114;28;20018;-67
2023/10/15 01:48:05;;;;;;;4.40;2.72;;;;;;;6.77;100.00;101625.38;5008428;28;20215;-68
2023/10/15 01:50:41;;;;;;;7.25;3.00;;;;;;;6.80;100.00;101646.19;5008392;28;20113;-66
2023/10/15 01:53:07;;;;;;;7.00;2.80;;;;;;;6.85;100.00;101639.63;5008587;28;20466;-67
2023/10/15 01:55:35;;;;;;;9.90;2.90;;;;;;;6.88;100.00;101644.97;5008234;28;20034;-67
2023/10/15 01:58:04;;;;;;;8.98;3.03;;;;;;;6.88;100.00;101638.91;5008551;28;20026;-67
2023/10/15 02:00:33;;;;;;;5.68;2.20;;;;;;;6.90;100.00;101633.06;5008128;28;20025;-67
2023/10/15 02:02:59;;;;;;;5.53;2.33;;;;;;;6.91;100.00;101623.63;5008822;28;20022;-67
2023/10/15 02:05:27;;;;;;;5.80;2.47;;;;;;;6.85;100.00;101607.00;5008154;28;20017;-67
2023/10/15 02:07:53;;;;;;;4.63;2.28;;;;;;;6.87;100.00;101607.13;5008382;28;20026;-67
2023/10/15 02:10:19;;;;;;;6.20;2.65;;;;;;;6.89;100.00;101605.50;5007403;28;20018;-67
2023/10/15 02:12:51;;;;;;;5.35;2.50;;;;;;;6.90;100.00;101606.41;5008558;28;20021;-67
2023/10/15 02:15:22;;;;;;;6.45;2.80;;;;;;;6.82;100.00;101593.06;5007947;28;20026;-67
2023/10/15 02:17:51;;;;;;;7.70;2.63;;;;;;;6.79;100.00;101593.78;5007665;28;20022;-67
2023/10/15 02:20:26;;;;;;;6.47;2.70;;;;;;;6.69;100.00;101600.06;5007672;28;20025;-66
2023/10/15 02:22:53;;;;;;;4.63;2.97;;;;;;;6.58;100.00;101593.38;5008101;28;20382;-67
2023/10/15 02:25:22;;;;;;;5.97;3.20;;;;;;;6.56;100.00;101590.72;5007200;28;20030;-67
2023/10/15 02:27:47;;;;;;;6.95;3.10;;;;;;;6.49;100.00;101592.00;5008013;28;20412;-67
2023/10/15 02:30:13;;;;;;;6.00;3.13;;;;;;;6.43;100.00;101589.06;5007615;28;20124;-67
2023/10/15 02:32:42;;;;;;;8.60;3.45;;;;;;;6.41;100.00;101590.66;5007500;28;20141;-67
2023/10/15 02:35:12;;;;;;;5.80;2.75;;;;;;;6.32;100.00;101595.25;5007273;28;20025;-66
2023/10/15 02:37:40;;;;;;;6.95;3.25;;;;;;;6.33;100.00;101597.03;5007291;28;20021;-67
2023/10/15 02:40:16;;;;;;;7.18;4.07;;;;;;;6.34;100.00;101585.94;5007814;28;20026;-68
2023/10/15 02:42:50;;;;;;;6.78;3.10;;;;;;;6.30;100.00;101587.44;5007803;28;20045;-66
2023/10/15 02:45:18;;;;;;;6.80;3.50;;;;;;;6.33;100.00;101582.44;5007437;28;20037;-65
2023/10/15 02:47:49;;;;;;;6.53;3.85;;;;;;;6.34;100.00;101584.25;5007028;28;20340;-67
2023/10/15 02:50:26;;;;;;;6.03;3.20;;;;;;;6.27;100.00;101586.34;5006603;28;20076;-67
2023/10/15 02:52:54;;;;;;;6.40;3.03;;;;;;;6.24;100.00;101590.50;5008147;28;20057;-67
2023/10/15 02:55:26;;;;;;;6.03;3.15;;;;;;;6.27;100.00;101612.09;5007635;28;20021;-67
2023/10/15 02:57:52;;;;;;;5.90;3.33;;;;;;;6.33;100.00;101671.69;5007385;28;20340;-67
2023/10/15 03:00:28;;;;;;;5.55;3.33;;;;;;;6.38;100.00;101662.56;5007880;28;20040;-66
2023/10/15 03:02:54;;;;;;;6.45;3.00;;;;;;;6.43;100.00;101662.84;5006750;28;20030;-65
2023/10/15 03:05:25;;;;;;;4.95;2.38;;;;;;;6.48;100.00;101664.91;5006971;28;20548;-67
2023/10/15 03:07:50;;;;;;;8.40;2.55;;;;;;;6.57;100.00;101661.13;5007997;28;20229;-67
2023/10/15 03:10:24;;;;;;;2.88;1.70;;;;;;;6.62;100.00;101661.44;5007428;28;20371;-67
2023/10/15 03:12:50;;;;;;;3.97;1.70;;;;;;;6.66;100.00;101647.91;5006767;28;20040;-67
2023/10/15 03:15:17;;;;;;;2.65;1.60;;;;;;;6.71;100.00;101656.84;5006808;28;20030;-67
2023/10/15 03:17:45;;;;;;;3.83;2.17;;;;;;;6.73;100.00;101663.84;5007136;28;20512;-66
2023/10/15 03:22:46;;;;;;;6.80;1.55;;;;;;;6.78;100.00;101681.28;5007369;28;20035;-67
2023/10/15 03:25:16;;;;;;;3.45;1.20;;;;;;;6.78;100.00;101677.00;5006774;28;20087;-67
2023/10/15 03:27:46;;;;;;;2.67;1.25;;;;;;;6.79;100.00;101683.06;5006948;28;20030;-67
2023/10/15 03:30:13;;;;;;;2.53;1.20;;;;;;;6.77;100.00;101679.50;5007234;28;20036;-67
2023/10/15 03:32:41;;;;;;;3.60;1.58;;;;;;;6.77;100.00;101656.31;5007064;28;20273;-64
2023/10/15 03:35:17;;;;;;;3.25;1.35;;;;;;;6.65;100.00;101667.66;5007358;28;20498;-66
2023/10/15 03:37:46;;;;;;;4.40;1.73;;;;;;;6.66;100.00;101677.16;5006782;28;20060;-67
2023/10/15 03:40:29;;;;;;;2.85;1.90;;;;;;;6.66;100.00;101674.56;5007128;28;20026;-67
2023/10/15 03:43:00;;;;;;;2.15;1.20;;;;;;;6.56;100.00;101677.38;5006884;28;20156;-67
2023/10/15 03:45:27;;;;;;;2.95;1.55;;;;;;;6.49;100.00;101661.53;5007547;28;20034;-68
2023/10/15 03:47:54;;;;;;;4.60;2.00;;;;;;;6.49;100.00;101674.41;5006490;28;20033;-68
2023/10/15 03:50:19;;;;;;;4.35;1.88;;;;;;;6.52;100.00;101671.16;5006879;28;20026;-68
2023/10/15 03:52:44;;;;;;;4.20;1.98;;;;;;;6.45;100.00;101657.00;5006066;28;20474;-68
2023/10/15 03:55:10;;;;;;;3.50;1.35;;;;;;;6.40;100.00;101666.13;5007252;28;20556;-68
2023/10/15 03:57:36;;;;;;;3.67;1.40;;;;;;;6.41;100.00;101673.06;5006804;28;20030;-68
2023/10/15 04:00:12;;;;;;;2.80;1.70;;;;;;;6.42;100.00;101676.53;4994483;28;20569;-68
2023/10/15 04:02:59;;;;;;;2.28;1.40;;;;;;;6.43;100.00;101679.19;4997543;28;20036;-68
2023/10/15 04:05:28;;;;;;;3.35;1.70;;;;;;;6.43;100.00;101686.03;5010032;28;20087;-66
2023/10/15 04:07:54;;;;;;;3.00;1.40;;;;;;;6.45;100.00;101690.50;5010454;28;20041;-68
2023/10/15 04:10:23;;;;;;;4.05;1.70;;;;;;;6.46;100.00;101692.25;5010492;28;20470;-68
2023/10/15 04:12:48;;;;;;;1.63;1.27;;;;;;;6.43;100.00;101680.88;5010631;28;20095;-67
2023/10/15 04:15:16;;;;;;;1.90;1.25;;;;;;;6.41;100.00;101683.34;5009894;28;20022;-66
2023/10/15 04:17:44;;;;;;;3.53;1.65;;;;;;;6.44;100.00;101688.69;5017193;28;20022;-66
2023/10/15 04:20:13;;;;;;;2.45;1.25;;;;;;;6.46;100.00;101681.94;5009843;28;20109;-68
2023/10/15 04:22:44;;;;;;;3.45;1.05;;;;;;;6.39;100.00;101679.78;5009162;28;20049;-67
2023/10/15 04:25:23;;;;;;;2.72;1.02;;;;;;;6.42;100.00;101695.41;5009912;28;20040;-67
2023/10/15 04:27:48;;;;;;;3.97;1.10;;;;;;;6.38;100.00;101680.59;5009880;28;20049;-67
2023/10/15 04:30:14;;;;;;;1.92;1.10;;;;;;;6.34;100.00;101676.03;5010154;28;20395;-66
2023/10/15 04:35:11;;;;;;;3.95;1.52;;;;;;;6.25;100.00;101684.06;5010573;28;20088;-68
2023/10/15 04:37:37;;;;;;;2.45;1.20;;;;;;;6.29;100.00;101668.03;5009643;28;20026;-68
2023/10/15 04:40:05;;;;;;;2.90;1.25;;;;;;;6.29;100.00;101650.03;5010332;28;20026;-67
2023/10/15 04:42:37;;;;;;;3.83;1.58;;;;;;;6.30;100.00;101656.03;5008952;28;20399;-67
2023/10/15 04:45:20;;;;;;;4.40;1.25;;;;;;;6.34;100.00;101661.50;5010020;28;20110;-67
2023/10/15 04:47:50;;;;;;;2.13;1.02;;;;;;;6.35;100.00;101670.97;5009850;28;20022;-67
2023/10/15 04:50:16;;;;;;;2.87;1.20;;;;;;;6.34;100.00;101676.94;5009797;28;20034;-68
2023/10/15 04:52:42;;;;;;;2.80;1.10;;;;;;;6.34;100.00;101671.78;5008999;28;20032;-67
2023/10/15 04:55:08;;;;;;;3.90;1.50;;;;;;;6.32;100.00;101669.91;5009543;28;20038;-67
2023/10/15 04:57:33;;;;;;;1.90;1.08;;;;;;;6.32;100.00;101652.78;5009513;28;20121;-67
2023/10/15 04:59:58;;;;;;;2.70;1.23;;;;;;;6.31;100.00;101643.28;5009683;28;20065;-67
2023/10/15 05:02:24;;;;;;;3.88;1.80;;;;;;;6.30;100.00;101628.63;5008178;28;20316;-67
2023/10/15 05:04:49;;;;;;;4.60;2.05;;;;;;;6.28;100.00;101629.34;5016271;28;20030;-66
2023/10/15 05:07:15;;;;;;;4.07;1.77;;;;;;;6.27;100.00;101630.09;5009296;28;20390;-67
2023/10/15 05:09:44;;;;;;;2.75;1.92;;;;;;;6.27;100.00;101632.69;5008603;28;20145;-67
2023/10/15 05:12:09;;;;;;;4.18;2.00;;;;;;;6.27;100.00;101645.56;5009204;28;20038;-65
2023/10/15 05:14:35;;;;;;;5.18;2.13;;;;;;;6.28;100.00;101652.50;5004756;28;20048;-67
2023/10/15 05:17:00;;;;;;;4.72;2.00;;;;;;;6.28;100.00;101640.50;5005111;28;20139;-66
2023/10/15 05:19:25;;;;;;;5.18;2.20;;;;;;;6.27;100.00;101654.19;5017523;28;20040;-66
2023/10/15 05:21:51;;;;;;;3.58;2.03;;;;;;;6.29;100.00;101647.44;5009333;28;20021;-67
2023/10/15 05:24:19;;;;;;;3.22;1.70;;;;;;;6.32;100.00;101646.72;5004486;28;20026;-67
2023/10/15 05:26:48;;;;;;;3.05;1.70;;;;;;;6.32;100.00;101657.94;5019717;28;20017;-65
2023/10/15 05:29:18;;;;;;;2.90;1.83;;;;;;;6.34;100.00;101661.50;5018367;28;20057;-66
2023/10/15 05:31:43;;;;;;;5.68;1.80;;;;;;;6.38;100.00;101680.59;5006213;28;20056;-66
2023/10/15 05:34:09;;;;;;;3.85;1.60;;;;;;;6.40;100.00;101696.13;5006075;28;20053;-67
2023/10/15 05:36:37;;;;;;;3.67;1.73;;;;;;;6.39;100.00;101699.47;5005515;28;20079;-65
2023/10/15 05:39:09;;;;;;;2.08;1.73;;;;;;;6.43;100.00;101706.63;5006054;28;20030;-64
2023/10/15 05:41:34;;;;;;;;;;;;;;;6.46;100.00;101711.94;4995208;28;20052;-66
2023/10/15 05:44:00;;;;;;;1.88;1.05;;;;;;;6.48;100.00;101715.53;5005981;28;19913;-67
2023/10/15 05:46:25;;;;;;;2.92;0.70;;;;;;;6.45;100.00;101718.81;5005398;28;20032;-65
2023/10/15 05:48:51;;;;;;;4.65;0.95;;;;;;;6.45;100.00;101718.81;5004788;28;20153;-67
2023/10/15 05:51:16;;;;;;;1.48;0.60;;;;;;;6.47;100.00;101714.66;5007469;28;20590;-68
2023/10/15 05:53:41;;;;;;;3.13;0.70;;;;;;;6.39;100.00;101710.69;5006427;28;20030;-67
2023/10/15 05:56:07;;;;;;;4.90;0.90;;;;;;;6.37;100.00;101712.28;5013024;28;20025;-67
2023/10/15 05:58:32;;;;;;;1.38;0.50;;;;;;;6.36;100.00;101700.19;5023996;28;20060;-66
2023/10/15 06:00:57;;;;;;;0.75;0.60;;;;;;;6.35;100.00;101704.44;5023945;28;20037;-67
2023/10/15 06:03:23;;;;;;;3.17;0.88;;;;;;;6.35;100.00;101698.44;5009250;28;20054;-66
2023/10/15 06:05:49;;;;;;;2.55;0.60;;;;;;;6.33;100.00;101711.19;5004155;28;20026;-67
2023/10/15 06:08:14;;;;;;;1.40;0.57;;;;;;;6.34;100.00;101722.38;5004485;28;20263;-66
2023/10/15 06:10:40;;;;;;;0.65;0.57;;;;;;;6.34;100.00;101723.28;5006455;28;20415;-67
2023/10/15 06:13:05;;;;;;;3.63;0.80;;;;;;;6.32;100.00;101716.22;5006528;28;20033;-67
2023/10/15 06:15:30;;;;;;;1.30;0.60;;;;;;;6.31;100.00;101722.19;5006037;28;20033;-67
2023/10/15 06:17:56;;;;;;;3.17;0.90;;;;;;;6.30;100.00;101722.97;5018257;28;20370;-67
2023/10/15 06:20:21;;;;;;;2.10;0.80;;;;;;;6.30;100.00;101725.53;5005855;28;20072;-67
2023/10/15 06:22:49;;;;;;;2.40;0.50;;;;;;;6.28;100.00;101732.31;5011599;28;20381;-67
2023/10/15 06:25:17;;;;;;;2.92;0.70;;;;;;;6.28;100.00;101729.72;5022760;28;20033;-67
2023/10/15 06:27:42;;;;;;;1.45;0.60;;;;;;;6.27;100.00;101730.50;5005799;28;20628;-68
2023/10/15 06:30:17;;;;;;;2.05;0.82;;;;;;;6.26;100.00;101718.44;5005103;28;20038;-66
2023/10/15 06:32:44;;;;;;;5.43;0.75;;;;;;;6.22;100.00;101743.09;5005276;28;20124;-66
2023/10/15 06:35:10;;;;;;;6.70;0.90;;;;;;;6.24;100.00;101742.38;5008446;28;20026;-67
2023/10/15 06:37:38;;;;;;;4.00;0.73;;;;;;;6.24;100.00;101741.50;4993965;28;20030;-68
2023/10/15 06:40:08;;;;;;;2.22;0.70;;;;;;;6.23;100.00;101743.19;5004765;28;20037;-69
2023/10/15 06:42:33;;;;;;;2.08;0.60;;;;;;;6.27;100.00;101741.69;5000625;28;20076;-68
2023/10/15 06:44:58;;;;;;;3.17;0.80;;;;;;;6.23;100.00;101740.59;5005027;28;20018;-68
2023/10/15 06:47:24;;;;;;;3.80;0.70;;;;;;;6.29;100.00;101742.69;5001462;28;20022;-67
2023/10/15 06:49:53;;;;;;;4.95;1.00;;;;;;;6.31;100.00;101743.69;5004857;28;20133;-67
2023/10/15 06:52:18;;;;;;;2.63;0.82;;;;;;;6.31;100.00;101745.38;5004932;28;20033;-67
2023/10/15 06:54:44;;;;;;;1.85;0.45;;;;;;;6.31;100.00;101737.63;5004687;28;20033;-67
2023/10/15 06:57:09;;;;;;;2.45;0.88;;;;;;;6.27;100.00;101735.66;5001333;28;20094;-64
2023/10/15 06:59:34;;;;;;;3.80;1.05;;;;;;;6.21;100.00;101737.03;5005525;28;20030;-66
2023/10/15 07:01:59;;;;;;;2.53;0.80;;;;;;;6.20;100.00;101747.25;5003883;28;20148;-68
2023/10/15 07:04:27;;;;;;;1.25;0.63;;;;;;;6.21;100.00;101755.06;5006124;28;20421;-68
2023/10/15 07:06:53;;;;;;;4.80;0.70;;;;;;;6.24;100.00;101762.97;5008228;28;20402;-66
2023/10/15 07:09:18;;;;;;;1.98;0.77;;;;;;;6.29;100.00;101764.97;4987882;28;20088;-68
2023/10/15 07:11:43;;;;;;;2.22;0.80;;;;;;;6.30;100.00;101772.78;4993127;28;20032;-68
2023/10/15 07:14:09;;;;;;;1.70;0.60;;;;;;;6.37;100.00;101768.91;4992418;28;20592;-68
2023/10/15 07:16:34;;;;;;;2.63;0.65;;;;;;;6.41;100.00;101770.91;5001388;28;20096;-67
2023/10/15 07:19:01;;;;;;;2.25;0.90;;;;;;;6.45;100.00;101770.31;4991043;28;20022;-67
2023/10/15 07:21:26;;;;;;;1.77;0.70;;;;;;;6.47;100.00;101776.47;4998489;28;20030;-67
2023/10/15 07:23:53;;;;;;;1.13;0.77;;;;;;;6.53;100.00;101775.94;5009011;28;20085;-67
2023/10/15 07:26:18;;;;;;;6.03;0.90;;;;;;;6.58;100.00;101771.09;5007129;28;20025;-68
2023/10/15 07:28:43;;;;;;;2.53;1.10;;;;;;;6.63;100.00;101777.41;5007272;28;20037;-67
2023/10/15 07:31:09;;;;;;;2.13;0.70;;;;;;;6.70;100.00;101789.91;5010316;28;20061;-67
2023/10/15 07:33:34;;;;;;;2.35;1.08;;;;;;;6.77;100.00;101785.13;5023594;28;20030;-68
2023/10/15 07:36:01;;;;;;;2.70;0.70;;;;;;;6.84;100.00;101797.59;5020975;28;20021;-67
2023/10/15 07:38:27;;;;;;;2.53;1.15;;;;;;;6.88;100.00;101798.69;5014913;28;20038;-67
2023/10/15 07:40:55;;;;;;;2.75;0.70;;;;;;;6.91;100.00;101810.06;5011083;28;20053;-65
2023/10/15 07:43:20;;;;;;;4.32;0.90;;;;;;;6.93;100.00;101812.72;5009643;28;20425;-67
2023/10/15 07:45:45;;;;;;;2.13;0.90;;;;;;;6.96;100.00;101818.97;5009659;28;20025;-67
2023/10/15 07:48:11;;;;;;;3.58;0.93;;;;;;;6.96;100.00;101808.66;5018662;28;20128;-67
2023/10/15 07:50:37;;;;;;;2.85;0.88;;;;;;;6.90;100.00;101803.16;5010438;28;20018;-67
2023/10/15 07:53:03;;;;;;;3.80;0.90;;;;;;;6.90;100.00;101797.09;5009701;28;20041;-67
2023/10/15 07:55:29;;;;;;;1.15;0.70;;;;;;;6.94;100.00;101809.38;5004578;28;20038;-67
2023/10/15 07:57:54;;;;;;;4.53;1.17;;;;;;;7.02;100.00;101815.00;5017435;28;20144;-65
2023/10/15 08:00:26;;;;;;;1.83;0.90;;;;;;;7.09;100.00;101820.63;5019394;28;20025;-66
2023/10/15 08:02:57;;;;;;;;;;;;;;;7.20;100.00;101821.31;5010739;28;20025;-67
2023/10/15 08:05:22;;;;;;;5.13;0.98;;;;;;;7.28;100.00;101824.38;5007200;28;20432;-68
2023/10/15 08:07:50;;;;;;;1.63;0.60;;;;;;;7.32;100.00;101823.72;5009936;28;20103;-66
2023/10/15 08:10:17;;;;;;;4.10;1.13;;;;;;;7.35;100.00;101823.03;5010248;28;20030;-67
2023/10/15 08:12:43;;;;;;;2.47;0.82;;;;;;;7.40;100.00;101837.09;5009395;28;20429;-67
2023/10/15 08:15:08;;;;;;;2.58;0.77;;;;;;;7.42;100.00;101835.53;5009393;28;20030;-67
2023/10/15 08:17:34;;;;;;;4.55;0.90;;;;;;;7.41;100.00;101833.72;5016376;28;20947;-67
2023/10/15 08:19:59;;;;;;;4.60;1.20;;;;;;;7.47;100.00;101837.47;5003293;28;20033;-67
2023/10/15 08:22:28;;;;;;;3.90;0.85;;;;;;;7.54;100.00;101855.09;5013554;28;20017;-67
2023/10/15 08:24:53;;;;;;;2.80;1.23;;;;;;;7.60;100.00;101850.31;5021073;28;20018;-67
2023/10/15 08:27:19;;;;;;;2.35;1.45;;;;;;;7.62;100.00;101859.06;5023832;28;20040;-67
2023/10/15 08:29:44;;;;;;;5.07;1.00;;;;;;;7.61;100.00;101861.53;5019313;28;20383;-66
2023/10/15 08:32:20;;;;;;;4.75;1.00;;;;;;;7.63;100.00;101865.97;5003887;28;20019;-67
2023/10/15 08:34:46;;;;;;;6.10;0.90;;;;;;;7.66;100.00;101875.63;5010140;28;20026;-66
2023/10/15 08:37:12;;;;;;;8.18;1.10;;;;;;;7.62;100.00;101878.78;5010230;28;20026;-67
2023/10/15 08:39:40;;;;;;;6.45;1.05;;;;;;;7.64;100.00;101895.25;5009054;28;20083;-67
2023/10/15 08:42:11;;;;;;;3.92;1.05;;;;;;;7.64;100.00;101909.06;5009594;28;20487;-66
2023/10/15 08:44:38;;;;;;;3.03;1.02;;;;;;;7.64;100.00;101914.22;5010092;28;20029;-67
2023/10/15 08:47:06;;;;;;;2.60;1.08;;;;;;;7.62;100.00;101914.91;5025325;28;20414;-67
2023/10/15 08:49:37;;;;;;;2.47;0.90;;;;;;;7.58;100.00;101926.72;5024193;28;20025;-67
2023/10/15 08:52:06;;;;;;;3.80;0.80;;;;;;;7.56;100.00;101920.56;5027622;28;20021;-67
2023/10/15 08:54:38;;;;;;;3.55;1.08;;;;;;;7.49;100.00;101921.00;5009795;28;20192;-67
2023/10/15 08:57:06;;;;;;;1.77;0.98;;;;;;;7.50;100.00;101927.94;5005985;28;20196;-67
2023/10/15 08:59:32;;;;;;;3.15;0.63;;;;;;;7.48;100.00;101933.03;5005507;28;20068;-65
2023/10/15 09:01:59;;;;;;;3.35;0.75;;;;;;;7.45;100.00;101946.59;4996624;28;20034;-66
2023/10/15 09:04:24;;;;;;;4.95;0.80;;;;;;;7.45;100.00;101945.69;5006767;28;20441;-66
2023/10/15 09:06:49;;;;;;;2.97;0.55;;;;;;;7.43;100.00;101963.66;4997047;28;20030;-66
2023/10/15 09:09:15;;;;;;;2.08;0.50;;;;;;;7.44;100.00;101968.03;5009852;28;20399;-66
2023/10/15 09:11:42;;;;;;;3.05;1.20;;;;;;;7.45;100.00;101959.50;4989949;28;20113;-67
2023/10/15 09:14:13;;;;;;;3.13;0.80;;;;;;;7.45;100.00;101969.81;5007015;28;20075;-67
2023/10/15 09:16:46;;;;;;;2.42;0.98;;;;;;;7.47;100.00;101959.59;5019122;28;20468;-67
2023/10/15 09:19:12;;;;;;;3.22;0.73;;;;;;;7.51;100.00;101969.31;5012237;28;20025;-67
2023/10/15 09:21:37;;;;;;;2.75;0.80;;;;;;;7.56;100.00;101974.75;5008955;28;20477;-67
2023/10/15 09:24:03;;;;;;;1.73;0.60;;;;;;;7.60;100.00;101984.47;5009479;28;20022;-67
2023/10/15 09:26:31;;;;;;;3.30;0.93;;;;;;;7.65;100.00;101979.59;5009321;28;20185;-67
2023/10/15 09:28:57;;;;;;;2.78;1.13;;;;;;;7.68;100.00;101972.06;5008690;28;20018;-68
2023/10/15 09:31:23;;;;;;;3.25;0.52;;;;;;;7.61;100.00;101964.75;5006562;28;20022;-67
2023/10/15 09:33:51;;;;;;;3.40;0.80;;;;;;;7.61;100.00;101965.59;5007757;28;20037;-67
2023/10/15 09:36:16;;;;;;;1.77;0.60;;;;;;;7.67;100.00;101966.00;5008281;28;20041;-67
2023/10/15 09:38:41;;;;;;;2.33;0.70;;;;;;;7.77;100.00;101964.00;5012812;28;20041;-67
2023/10/15 09:41:07;;;;;;;2.75;0.70;;;;;;;7.85;100.00;101965.34;5008108;28;20083;-68
2023/10/15 09:43:35;;;;;;;3.10;0.85;;;;;;;8.01;100.00;101964.59;5010792;28;20044;-67
2023/10/15 09:46:03;;;;;;;3.58;0.80;;;;;;;8.16;100.00;101972.38;5007131;28;20041;-67
2023/10/15 09:48:28;;;;;;;2.45;0.88;;;;;;;8.33;100.00;101969.03;5008914;28;20415;-66
2023/10/15 09:50:57;;;;;;;2.42;1.00;;;;;;;8.43;100.00;101978.19;5007527;28;20288;-68
2023/10/15 09:53:27;;;;;;;1.35;0.60;;;;;;;8.44;100.00;101977.41;5007280;28;20079;-67
2023/10/15 09:55:53;;;;;;;2.90;0.80;;;;;;;8.47;100.00;101993.09;5007733;28;20037;-67
2023/10/15 09:58:19;;;;;;;5.40;0.80;;;;;;;8.48;100.00;102000.03;5006210;28;20061;-66
2023/10/15 10:03:47;;;;;;;2.60;0.60;;;;;;;8.43;100.00;101996.28;5000534;28;20493;-67
2023/10/15 10:06:49;;;;;;;1.90;0.70;;;;;;;8.44;100.00;102000.66;5006477;28;20026;-67
2023/10/15 10:09:39;;;;;;;5.03;0.60;;;;;;;8.43;100.00;101997.19;5002145;28;20386;-67
2023/10/15 10:12:20;;;;;;;3.08;0.60;;;;;;;8.43;100.00;101996.28;5004016;28;20537;-68
2023/10/15 10:15:11;;;;;;;3.03;0.60;;;;;;;8.49;100.00;102007.00;5008354;28;20026;-68
2023/10/15 10:17:37;;;;;;;;;;;;;;;8.55;100.00;102012.50;5008636;28;20277;-68
2023/10/15 10:20:13;;;;;;;1.70;0.70;;;;;;;8.62;100.00;102017.28;5008307;28;19910;-68
2023/10/15 10:22:39;;;;;;;2.25;0.50;;;;;;;8.69;100.00;102025.41;5008404;28;20446;-68
2023/10/15 10:25:07;;;;;;;2.17;0.50;;;;;;;8.69;100.00;102030.56;5008503;28;20018;-67
2023/10/15 10:27:43;;;;;;;3.15;0.73;;;;;;;8.69;100.00;102031.44;4995662;28;20026;-68
2023/10/15 10:30:26;;;;;;;2.40;0.88;;;;;;;8.68;100.00;102034.84;5007875;28;20425;-68
2023/10/15 10:32:52;;;;;;;2.60;0.73;;;;;;;8.64;100.00;102040.63;5007634;28;20028;-68
2023/10/15 10:35:18;;;;;;;2.90;0.93;;;;;;;8.59;100.00;102040.34;5007798;28;20513;-69
2023/10/15 10:38:05;;;;;;;3.30;0.73;;;;;;;8.58;100.00;102035.97;5008190;28;20534;-68
2023/10/15 10:41:04;;;;;;;4.43;0.60;;;;;;;8.47;100.00;102039.59;5007895;28;20079;-66
2023/10/15 10:43:30;;;;;;;1.35;0.40;;;;;;;8.43;100.00;102045.38;5008357;28;20116;-68
2023/10/15 10:45:58;;;;;;;4.32;0.60;;;;;;;8.40;100.00;102034.03;5006637;28;20021;-67
2023/10/15 10:48:38;;;;;;;3.35;0.70;;;;;;;8.51;100.00;102038.94;5008388;28;20410;-68
2023/10/15 10:51:15;;;;;;;3.22;0.68;;;;;;;8.59;100.00;102032.59;5007607;28;20025;-68
2023/10/15 10:53:55;;;;;;;4.10;0.95;;;;;;;8.69;100.00;102038.31;5007458;28;20458;-68
2023/10/15 10:56:25;;;;;;;2.47;0.52;;;;;;;8.78;100.00;102036.25;5006930;28;20028;-67
2023/10/15 10:58:57;;;;;;;2.45;0.50;;;;;;;8.88;100.00;102042.88;5007640;28;20030;-67
2023/10/15 11:01:23;;;;;;;6.13;1.10;;;;;;;8.96;100.00;102039.03;5007722;28;20447;-68
2023/10/15 11:03:48;;;;;;;3.50;0.90;;;;;;;9.05;100.00;102030.91;5007462;28;20109;-67
2023/10/15 11:06:15;;;;;;;1.80;0.63;;;;;;;9.03;100.00;102037.69;5007294;28;20114;-67
2023/10/15 11:08:41;;;;;;;2.50;0.70;;;;;;;9.11;100.00;102035.53;5006871;28;20037;-68
2023/10/15 11:11:09;;;;;;;2.70;0.95;;;;;;;9.17;100.00;102040.19;5007044;28;20030;-68
2023/10/15 11:13:34;;;;;;;3.63;0.70;;;;;;;9.22;100.00;102043.91;5007600;28;20030;-68
2023/10/15 11:16:00;;;;;;;2.35;0.60;;;;;;;9.21;100.00;102042.16;5006887;28;20363;-67
2023/10/15 11:18:30;;;;;;;3.00;0.70;;;;;;;9.13;100.00;102045.19;5006997;28;20030;-68
2023/10/15 11:20:56;;;;;;;2.70;0.85;;;;;;;9.18;100.00;102039.38;5007477;28;20112;-68
2023/10/15 11:23:26;;;;;;;2.05;0.60;;;;;;;9.21;100.00;102047.31;5006638;28;20175;-67
2023/10/15 11:25:55;;;;;;;3.67;1.00;;;;;;;9.23;100.00;102040.50;5007563;28;20053;-67
2023/10/15 11:28:20;;;;;;;3.10;0.80;;;;;;;9.38;100.00;102045.69;5007232;28;20080;-67
2023/10/15 11:30:45;;;;;;;2.58;0.68;;;;;;;9.60;100.00;102052.97;5007557;28;20057;-67
2023/10/15 11:33:12;;;;;;;2.67;0.60;;;;;;;9.76;100.00;102060.66;5006982;28;20032;-68
2023/10/15 11:35:38;;;;;;;4.18;0.95;;;;;;;9.76;100.00;102060.66;5007236;28;20030;-68
2023/10/15 11:38:10;;;;;;;6.30;0.90;;;;;;;9.71;100.00;102070.78;5006647;28;20080;-68
2023/10/15 11:40:37;;;;;;;2.67;0.70;;;;;;;9.61;100.00;102065.06;5007155;28;20054;-67
2023/10/15 11:43:04;;;;;;;2.80;0.75;;;;;;;9.53;100.00;102066.34;5006324;28;20058;-68